Time;durP1;ratioP1;P1;durP2;ratioP2;P2;SDS_P1;SDS_P2;PMS_P1;PMS_P2;Temp;Humidity;BMP_temperature;BMP_pressure;BME280_temperature;BME280_humidity;BME280_pressure;Samples;Min_cycle;Max_cycle;Signal;HPM_P1;HPM_P2
2022/05/21 00:00:24;;;;;;;;;4.33;3.00;;;;;16.77;58.42;102001.09;5108004;27;46547;-49
2022/05/21 00:02:50;;;;;;;;;3.00;3.00;;;;;16.78;58.66;101998.25;5109830;27;45252;-47
2022/05/21 00:05:18;;;;;;;;;7.33;4.00;;;;;16.81;58.46;101997.09;5109530;27;45395;-46
2022/05/21 00:07:43;;;;;;;;;3.00;3.00;;;;;16.82;58.43;101998.81;5108056;27;45565;-51
2022/05/21 00:10:12;;;;;;;;;2.00;2.00;;;;;16.81;58.42;101997.09;5109571;27;46179;-44
2022/05/21 00:12:38;;;;;;;;;5.33;3.67;;;;;16.80;58.43;102004.31;5109535;27;45245;-51
2022/05/21 00:15:04;;;;;;;;;2.67;2.67;;;;;16.78;58.42;101997.44;5107967;27;45157;-51
2022/05/21 00:17:29;;;;;;;;;5.00;3.00;;;;;16.77;58.67;101999.28;5109807;27;45532;-47
2022/05/21 00:19:55;;;;;;;;;2.67;2.00;;;;;16.75;58.64;101998.56;5109023;27;46775;-50
2022/05/21 00:22:20;;;;;;;;;5.00;3.00;;;;;16.75;58.85;102001.25;5107846;27;45321;-52
2022/05/21 00:24:45;;;;;;;;;4.00;4.00;;;;;16.74;58.63;101998.72;5102397;27;45401;-45
2022/05/21 00:27:11;;;;;;;;;5.33;4.00;;;;;16.73;58.86;101995.22;5109633;27;45384;-49
2022/05/21 00:29:37;;;;;;;;;2.33;2.33;;;;;16.70;58.88;101999.00;5109327;27;45843;-48
2022/05/21 00:32:02;;;;;;;;;3.33;3.33;;;;;16.68;58.89;102001.00;5110069;27;45567;-49
2022/05/21 00:34:28;;;;;;;;;3.67;3.00;;;;;16.56;58.67;101980.78;5107557;27;45418;-47
2022/05/21 00:36:53;;;;;;;;;3.67;3.00;;;;;16.67;59.19;102002.00;5108982;27;45445;-48
2022/05/21 00:39:19;;;;;;;;;3.00;3.00;;;;;16.64;59.03;102013.06;5107565;27;45955;-53
2022/05/21 00:41:45;;;;;;;;;4.33;4.00;;;;;16.60;59.24;102005.47;5109631;27;45532;-45
2022/05/21 00:44:10;;;;;;;;;3.00;3.00;;;;;16.61;59.36;102002.63;5087248;27;45319;-45
2022/05/21 00:46:39;;;;;;;;;4.67;3.00;;;;;16.59;59.48;102007.31;5100057;27;45421;-46
2022/05/21 00:49:21;;;;;;;;;5.00;3.00;;;;;16.54;59.26;102001.56;5107692;27;48381;-48
2022/05/21 00:52:12;;;;;;;;;2.67;2.67;;;;;16.54;58.72;102006.94;5104001;27;45401;-46
2022/05/21 00:54:42;;;;;;;;;5.67;3.33;;;;;16.53;59.57;102002.56;5034306;28;45445;-44
2022/05/21 00:57:16;;;;;;;;;3.00;3.00;;;;;16.53;59.52;101999.03;5032396;28;45425;-48
2022/05/21 00:59:51;;;;;;;;;5.67;4.67;;;;;16.55;59.65;102002.41;5033996;28;46271;-46
2022/05/21 01:02:24;;;;;;;;;6.00;4.67;;;;;16.55;59.55;102003.25;5034085;28;45401;-45
2022/05/21 01:04:50;;;;;;;;;4.00;3.00;;;;;16.57;59.62;102003.09;5032198;28;45382;-52
2022/05/21 01:07:15;;;;;;;;;4.33;4.33;;;;;16.61;59.64;102001.78;5034346;28;45536;-51
2022/05/21 01:09:50;;;;;;;;;4.00;4.00;;;;;16.60;59.51;101992.91;5033313;28;45410;-51
2022/05/21 01:12:16;;;;;;;;;4.33;3.67;;;;;16.63;59.50;101999.78;5034003;28;45540;-52
2022/05/21 01:14:42;;;;;;;;;5.00;4.00;;;;;16.57;59.62;101985.13;5034131;28;45454;-49
2022/05/21 01:17:08;;;;;;;;;4.33;3.67;;;;;16.53;59.64;101980.22;5034204;28;45244;-45
2022/05/21 01:19:55;;;;;;;;;5.00;3.33;;;;;16.62;59.50;102003.47;5033849;28;45472;-50
2022/05/21 01:22:28;;;;;;;;;4.33;3.00;;;;;16.60;59.36;102002.78;5033322;28;45463;-49
2022/05/21 01:24:54;;;;;;;;;3.00;3.00;;;;;16.62;59.43;101998.09;5034267;28;45475;-49
2022/05/21 01:27:21;;;;;;;;;6.00;4.00;;;;;16.60;59.73;101994.72;5034155;28;45423;-48
2022/05/21 01:29:50;;;;;;;;;5.00;4.00;;;;;16.62;59.70;102004.31;5030838;28;46142;-46
2022/05/21 01:32:17;;;;;;;;;3.33;1.67;;;;;16.62;59.90;102004.31;5076254;27;45554;-48
2022/05/21 01:34:42;;;;;;;;;4.00;3.33;;;;;16.61;59.99;102005.31;5108230;27;45309;-49
2022/05/21 01:37:08;;;;;;;;;4.00;4.00;;;;;16.63;59.46;102005.16;5087939;27;45330;-50
2022/05/21 01:39:33;;;;;;;;;3.33;3.33;;;;;16.55;59.48;101992.50;5106004;27;46093;-49
2022/05/21 01:41:59;;;;;;;;;3.33;3.33;;;;;16.65;59.99;102006.69;5111663;27;45337;-53
2022/05/21 01:44:39;;;;;;;;;5.00;4.00;;;;;16.66;59.78;102005.69;5104540;27;45369;-52
2022/05/21 01:47:10;;;;;;;;;3.00;2.00;;;;;16.58;59.55;101983.28;5110215;27;45489;-52
2022/05/21 01:49:36;;;;;;;;;4.00;3.00;;;;;16.66;59.42;102000.31;5108833;27;46010;-51
2022/05/21 01:52:04;;;;;;;;;3.33;2.00;;;;;16.68;59.66;102008.22;5113437;27;45432;-50
2022/05/21 01:54:31;;;;;;;;;4.00;3.00;;;;;16.66;59.87;102002.16;5111722;27;45280;-54
2022/05/21 01:56:56;;;;;;;;;3.00;3.00;;;;;16.67;59.55;102006.53;5113422;27;45196;-50
2022/05/21 01:59:22;;;;;;;;;4.33;2.67;;;;;16.66;59.74;102003.00;5114371;27;46296;-45
2022/05/21 02:01:48;;;;;;;;;3.00;2.00;;;;;16.67;59.62;101990.41;5112964;27;45245;-52
2022/05/21 02:04:15;;;;;;;;;1.33;1.00;;;;;16.68;59.67;101992.94;5112784;27;45233;-45
2022/05/21 02:06:40;;;;;;;;;4.67;3.00;;;;;16.67;59.54;101985.88;5109192;27;45417;-48
2022/05/21 02:09:05;;;;;;;;;8.00;3.00;;;;;16.69;59.55;101985.75;5105816;27;46306;-53
2022/05/21 02:11:31;;;;;;;;;6.00;5.00;;;;;16.67;59.94;101987.72;5105826;27;46567;-50
2022/05/21 02:13:56;;;;;;;;;5.00;3.00;;;;;16.62;60.13;101987.34;5106404;27;45436;-50
2022/05/21 02:16:22;;;;;;;;;3.33;3.33;;;;;16.62;60.10;101993.56;5105789;27;45465;-46
2022/05/21 02:18:47;;;;;;;;;5.33;3.00;;;;;16.62;60.11;101992.72;5106974;27;46891;-48
2022/05/21 02:21:12;;;;;;;;;6.33;4.00;;;;;16.58;59.81;101994.88;5106095;27;45546;-49
2022/05/21 02:23:38;;;;;;;;;4.33;3.00;;;;;16.51;60.28;101995.66;5105826;27;45985;-50
2022/05/21 02:26:03;;;;;;;;;4.00;3.00;;;;;16.39;60.19;101990.53;5107379;27;45396;-51
2022/05/21 02:28:29;;;;;;;;;2.00;2.00;;;;;16.39;60.39;101998.59;5105604;27;46521;-48
2022/05/21 02:30:55;;;;;;;;;3.00;3.00;;;;;16.34;60.73;101998.19;5106019;27;45513;-49
2022/05/21 02:33:21;;;;;;;;;2.67;2.00;;;;;16.28;60.96;101996.13;5105414;27;45423;-46
2022/05/21 02:35:46;;;;;;;;;2.33;2.33;;;;;16.26;61.25;101999.94;5100629;27;45436;-47
2022/05/21 02:40:56;;;;;;;;;7.00;3.00;;;;;16.23;60.58;101989.53;5102907;27;45386;-46
2022/05/21 02:43:21;;;;;;;;;5.67;4.00;;;;;16.18;61.17;102006.94;5105909;27;45335;-48
2022/05/21 02:45:47;;;;;;;;;7.33;2.67;;;;;16.17;60.65;101999.88;5108101;27;45415;-52
2022/05/21 02:48:13;;;;;;;;;4.00;3.00;;;;;16.16;61.06;102000.03;5106765;27;46155;-51
2022/05/21 02:50:39;;;;;;;;;3.00;3.00;;;;;16.07;60.85;101977.63;5106172;27;45337;-50
2022/05/21 02:53:07;;;;;;;;;2.00;2.00;;;;;16.12;60.90;101994.13;5107813;27;45266;-49
2022/05/21 02:55:32;;;;;;;;;3.00;3.00;;;;;16.11;60.64;101997.81;5107375;27;45449;-51
2022/05/21 02:57:58;;;;;;;;;5.33;3.00;;;;;16.06;61.42;101994.75;5109438;27;46204;-44
2022/05/21 03:00:28;;;;;;;;;3.00;3.00;;;;;16.07;60.72;102001.78;5111315;27;45422;-50
2022/05/21 03:02:55;;;;;;;;;5.33;4.00;;;;;16.05;61.00;102003.78;5110450;27;45231;-50
2022/05/21 03:05:21;;;;;;;;;8.33;3.00;;;;;16.03;61.75;102008.47;5109366;27;45383;-51
2022/05/21 03:07:50;;;;;;;;;2.67;2.67;;;;;16.04;61.54;102009.31;5106152;27;46240;-50
2022/05/21 03:10:20;;;;;;;;;4.00;1.00;;;;;16.04;61.23;102009.31;5109784;27;45475;-46
2022/05/21 03:13:05;;;;;;;;;4.00;2.33;;;;;16.00;61.52;102000.69;5111064;27;45423;-49
2022/05/21 03:15:33;;;;;;;;;3.33;3.33;;;;;16.01;61.22;102007.75;5104578;27;45457;-49
2022/05/21 03:18:03;;;;;;;;;5.33;3.33;;;;;15.99;61.38;102000.88;5109109;27;46232;-46
2022/05/21 03:20:29;;;;;;;;;5.33;3.00;;;;;16.06;61.18;102008.16;5106271;27;45293;-51
2022/05/21 03:22:54;;;;;;;;;2.67;2.67;;;;;16.11;61.20;102011.22;5109877;27;45232;-53
2022/05/21 03:25:20;;;;;;;;;4.00;4.00;;;;;16.17;60.99;102010.59;5111020;27;45289;-47
2022/05/21 03:27:46;;;;;;;;;3.33;3.00;;;;;16.23;60.65;102008.34;5108721;27;46006;-53
2022/05/21 03:30:15;;;;;;;;;3.33;3.00;;;;;16.26;60.35;102010.69;5110124;27;45490;-44
2022/05/21 03:32:41;;;;;;;;;4.67;2.33;;;;;16.28;60.35;102004.19;5108889;27;45467;-46
2022/05/21 03:35:07;;;;;;;;;4.33;2.67;;;;;16.33;60.28;102001.88;5105980;27;45517;-49
2022/05/21 03:37:33;;;;;;;;;2.00;2.00;;;;;16.33;60.21;102004.56;5105152;27;46193;-48
2022/05/21 03:39:58;;;;;;;;;4.33;3.00;;;;;16.36;60.26;102011.47;5108841;27;45289;-49
2022/05/21 03:42:24;;;;;;;;;5.33;3.67;;;;;16.37;60.02;102003.25;5110624;27;46502;-50
2022/05/21 03:44:50;;;;;;;;;3.00;3.00;;;;;16.41;60.20;102007.31;5109328;27;45241;-49
2022/05/21 03:47:15;;;;;;;;;2.00;2.00;;;;;16.43;59.92;102007.16;5109496;27;45392;-51
2022/05/21 03:49:41;;;;;;;;;6.00;4.00;;;;;16.43;59.69;101999.09;5110675;27;45479;-48
2022/05/21 03:52:07;;;;;;;;;2.67;2.67;;;;;16.27;59.61;101974.81;5105502;27;45331;-50
2022/05/21 03:54:33;;;;;;;;;2.00;2.00;;;;;16.28;59.63;101990.75;5109756;27;45498;-50
2022/05/21 03:56:59;;;;;;;;;3.00;3.00;;;;;16.38;59.96;102013.00;5109901;27;46122;-54
2022/05/21 03:59:25;;;;;;;;;5.00;2.00;;;;;16.37;59.65;102022.06;5107692;27;45396;-50
2022/05/21 04:01:50;;;;;;;;;2.67;2.67;;;;;16.40;59.48;102020.91;5110177;27;45248;-54
2022/05/21 04:04:16;;;;;;;;;4.00;3.67;;;;;16.36;59.97;102004.25;5091281;27;45352;-53
2022/05/21 04:06:42;;;;;;;;;8.67;3.00;;;;;16.40;59.87;102005.66;5107491;27;47313;-47
2022/05/21 04:09:09;;;;;;;;;3.33;3.00;;;;;16.38;59.68;102001.41;5110063;27;45593;-50
2022/05/21 04:11:35;;;;;;;;;3.00;2.00;;;;;16.45;59.42;102007.88;5109256;27;45464;-50
2022/05/21 04:14:00;;;;;;;;;4.00;4.00;;;;;16.50;59.43;102012.78;5108431;27;45246;-53
2022/05/21 04:16:26;;;;;;;;;3.00;2.67;;;;;16.50;59.16;102005.56;5110191;27;45888;-49
2022/05/21 04:18:51;;;;;;;;;4.00;4.00;;;;;16.57;59.32;102003.09;5108725;27;45476;-47
2022/05/21 04:21:16;;;;;;;;;4.00;2.67;;;;;16.62;59.04;102012.38;5108791;27;45441;-52
2022/05/21 04:23:42;;;;;;;;;2.00;2.00;;;;;16.65;58.33;102008.53;5110089;27;45609;-51
2022/05/21 04:26:07;;;;;;;;;6.33;3.00;;;;;16.71;58.33;102014.13;5107377;27;45492;-51
2022/05/21 04:28:34;;;;;;;;;3.00;2.00;;;;;16.74;57.85;102012.16;5109099;27;45506;-54
2022/05/21 04:30:59;;;;;;;;;3.33;3.00;;;;;16.77;57.86;102025.28;5109630;27;45436;-51
2022/05/21 04:33:25;;;;;;;;;3.67;3.00;;;;;16.79;58.02;102015.22;5109459;27;45522;-51
2022/05/21 04:38:35;;;;;;;;;4.33;4.33;;;;;16.84;58.10;102000.31;5102116;27;45425;-52
2022/05/21 04:41:01;;;;;;;;;4.00;2.00;;;;;16.87;58.03;102005.38;5109556;27;45505;-53
2022/05/21 04:43:26;;;;;;;;;4.67;3.00;;;;;16.89;58.29;102011.44;5107637;27;45443;-52
2022/05/21 04:45:54;;;;;;;;;6.00;4.33;;;;;16.83;58.10;102003.16;5108924;27;46452;-53
2022/05/21 04:48:19;;;;;;;;;4.00;2.00;;;;;16.87;57.90;102015.28;5109320;27;45355;-46
2022/05/21 04:50:45;;;;;;;;;5.33;4.00;;;;;16.87;58.25;102009.91;5107394;27;45247;-47
2022/05/21 04:53:10;;;;;;;;;7.33;5.00;;;;;16.84;58.29;102003.00;5110556;27;45251;-52
2022/05/21 04:55:36;;;;;;;;;3.67;3.00;;;;;16.85;58.53;101999.31;5108013;27;46077;-53
2022/05/21 04:58:01;;;;;;;;;6.67;3.67;;;;;16.84;58.68;102004.84;5109271;27;45241;-48
2022/05/21 05:00:27;;;;;;;;;6.67;4.00;;;;;16.80;58.84;102014.22;5107250;27;45329;-53
2022/05/21 05:02:52;;;;;;;;;4.00;4.00;;;;;16.71;59.29;102024.03;5108595;27;45430;-52
2022/05/21 05:05:18;;;;;;;;;8.00;6.00;;;;;16.62;59.76;102004.31;5108483;27;46233;-52
2022/05/21 05:07:43;;;;;;;;;7.33;5.33;;;;;16.65;60.01;102001.31;5107036;27;45399;-51
2022/05/21 05:10:09;;;;;;;;;8.00;5.00;;;;;16.62;60.10;102004.31;5108831;27;45371;-49
2022/05/21 05:12:35;;;;;;;;;6.67;5.33;;;;;16.57;60.39;102003.09;5108570;27;45455;-51
2022/05/21 05:15:01;;;;;;;;;7.00;6.00;;;;;16.44;60.27;101984.69;5107231;27;46171;-52
2022/05/21 05:17:27;;;;;;;;;8.67;5.00;;;;;16.54;60.19;102012.31;5090743;27;45227;-48
2022/05/21 05:19:54;;;;;;;;;5.67;5.00;;;;;16.38;60.72;101991.50;5106878;27;45307;-47
2022/05/21 05:22:20;;;;;;;;;5.00;5.00;;;;;16.43;60.60;102012.53;5107323;27;45507;-51
2022/05/21 05:24:46;;;;;;;;;9.67;5.67;;;;;16.39;61.01;102009.34;5108770;27;46418;-52
2022/05/21 05:27:11;;;;;;;;;4.00;1.00;;;;;16.39;61.05;102001.28;5107802;27;45512;-48
2022/05/21 05:29:36;;;;;;;;;6.00;5.67;;;;;16.36;61.05;102003.41;5104059;27;45420;-51
2022/05/21 05:32:03;;;;;;;;;9.67;5.00;;;;;16.35;61.22;101999.91;5109282;27;45648;-52
2022/05/21 05:34:28;;;;;;;;;8.33;6.33;;;;;16.37;61.32;102005.94;5106813;27;45459;-54
2022/05/21 05:36:54;;;;;;;;;13.67;8.33;;;;;16.41;61.31;102006.47;5107996;27;45487;-50
2022/05/21 05:39:19;;;;;;;;;10.33;9.67;;;;;16.41;61.46;102012.69;5107351;27;45462;-50
2022/05/21 05:41:44;;;;;;;;;9.67;9.67;;;;;16.44;61.41;102008.88;5108734;27;45560;-51
2022/05/21 05:44:10;;;;;;;;;10.67;9.00;;;;;16.50;61.40;102005.56;5106808;27;45881;-52
2022/05/21 05:46:36;;;;;;;;;9.33;9.00;;;;;16.48;61.12;101995.97;5107303;27;45473;-54
2022/05/21 05:49:02;;;;;;;;;8.67;8.00;;;;;16.57;60.94;102003.94;5108843;27;45491;-49
2022/05/21 05:51:28;;;;;;;;;8.33;7.00;;;;;16.58;60.62;102004.78;5100235;27;45304;-48
2022/05/21 05:53:53;;;;;;;;;6.67;6.67;;;;;16.57;60.34;102001.25;5107053;27;46016;-51
2022/05/21 05:56:19;;;;;;;;;10.67;8.33;;;;;16.61;60.09;102016.06;5106567;27;45280;-50
2022/05/21 06:01:29;;;;;;;;;8.00;6.67;;;;;16.66;60.48;102015.59;5100281;27;45432;-49
2022/05/21 06:03:55;;;;;;;;;12.67;7.67;;;;;16.65;60.74;102009.38;5106856;27;46104;-45
2022/05/21 06:06:20;;;;;;;;;9.00;7.00;;;;;16.76;60.24;102011.00;5106301;27;45282;-45
2022/05/21 06:08:46;;;;;;;;;3.33;3.33;;;;;16.84;60.13;102004.84;5108517;27;45282;-43
2022/05/21 06:11:13;;;;;;;;;6.33;6.00;;;;;16.89;59.40;102005.22;5106899;27;45279;-51
2022/05/21 06:13:38;;;;;;;;;6.00;6.00;;;;;17.13;59.53;102013.44;5106458;27;45620;-50
2022/05/21 06:16:04;;;;;;;;;7.67;6.00;;;;;17.27;59.20;102011.16;5108038;27;45460;-46
2022/05/21 06:18:30;;;;;;;;;8.00;5.00;;;;;17.27;58.98;101997.72;5106537;27;45392;-53
2022/05/21 06:21:01;;;;;;;;;8.67;6.00;;;;;17.51;58.88;102019.34;5107170;27;45247;-48
2022/05/21 06:23:27;;;;;;;;;7.00;6.33;;;;;17.68;58.51;102017.59;5107937;27;46490;-50
2022/05/21 06:25:53;;;;;;;;;4.33;4.33;;;;;17.78;58.02;102015.66;5106355;27;45716;-45
2022/05/21 06:28:18;;;;;;;;;5.00;4.00;;;;;17.90;57.45;102016.16;5106684;27;45487;-51
2022/05/21 06:30:45;;;;;;;;;5.00;5.00;;;;;18.02;56.84;102012.16;5110530;27;45527;-49
2022/05/21 06:33:11;;;;;;;;;5.33;3.67;;;;;18.23;56.59;102017.09;5109437;27;46113;-53
2022/05/21 06:35:36;;;;;;;;;6.33;5.00;;;;;18.35;55.83;102002.28;5110588;27;45561;-53
2022/05/21 06:38:03;;;;;;;;;4.33;4.33;;;;;18.49;55.16;102003.47;5109694;27;45465;-48
2022/05/21 06:40:28;;;;;;;;;6.00;5.00;;;;;18.70;54.74;102009.22;5103316;27;45345;-51
2022/05/21 06:42:53;;;;;;;;;5.00;5.00;;;;;18.94;54.53;102013.75;5110091;27;45214;-50
2022/05/21 06:45:19;;;;;;;;;5.67;5.67;;;;;19.17;53.78;102005.81;5109589;27;45183;-49
2022/05/21 06:47:44;;;;;;;;;8.33;5.67;;;;;19.65;53.13;102019.34;5111464;27;45354;-48
2022/05/21 06:50:10;;;;;;;;;7.00;4.00;;;;;20.49;51.04;102001.44;5109988;27;45370;-46
2022/05/21 06:52:39;;;;;;;;;5.33;5.00;;;;;21.82;49.09;101998.00;5109778;27;46285;-45
2022/05/21 06:55:04;;;;;;;;;0.00;0.00;;;;;23.58;45.07;101995.28;5110974;27;45328;-46
2022/05/21 06:57:30;;;;;;;;;9.50;4.00;;;;;25.49;40.23;101992.09;5109245;27;45300;-50
2022/05/21 06:59:56;;;;;;;;;3.75;3.50;;;;;26.34;39.57;102001.72;5110319;27;45329;-48
2022/05/21 07:02:24;;;;;;;;;4.25;2.50;;;;;27.13;36.02;101985.72;5109831;27;45461;-47
2022/05/21 07:07:43;;;;;;;;;6.00;2.00;;;;;28.51;33.10;101986.84;5108281;27;45290;-49
2022/05/21 07:10:17;;;;;;;;;2.80;2.80;;;;;29.79;30.93;101990.53;5106364;27;45401;-47
2022/05/21 07:12:42;;;;;;;;;1.00;1.00;;;;;30.81;31.27;101995.09;5108629;27;46630;-52
2022/05/21 07:15:08;;;;;;;;;2.00;2.00;;;;;31.37;29.62;101992.31;5099891;27;45980;-48
2022/05/21 07:17:33;;;;;;;;;2.50;2.50;;;;;31.83;28.68;101993.66;5101878;27;45467;-49
2022/05/21 07:20:02;;;;;;;;;2.00;2.00;;;;;32.17;27.88;101996.22;5104682;27;45426;-49
2022/05/21 07:22:27;;;;;;;;;3.00;1.60;;;;;33.01;25.88;101974.31;5108221;27;47156;-50
2022/05/21 07:24:53;;;;;;;;;3.00;3.00;;;;;33.60;25.50;101991.69;5106790;27;45463;-49
2022/05/21 07:27:18;;;;;;;;;4.00;2.50;;;;;33.10;25.53;101987.59;5100893;27;45429;-49
2022/05/21 07:29:44;;;;;;;;;2.00;2.00;;;;;32.74;26.69;101992.84;5108939;27;45473;-47
2022/05/21 07:32:21;;;;;;;;;1.80;1.00;;;;;33.19;26.20;101997.81;5107930;27;45442;-51
2022/05/21 07:34:47;;;;;;;;;7.80;3.40;;;;;33.49;25.22;101991.63;5107394;27;45348;-48
2022/05/21 07:37:13;;;;;;;;;3.60;2.00;;;;;33.21;25.62;101990.13;5109377;27;45412;-51
2022/05/21 07:39:39;;;;;;;;;4.00;2.00;;;;;32.81;25.98;101974.16;5109145;27;45435;-51
2022/05/21 07:42:05;;;;;;;;;5.00;3.60;;;;;32.76;25.54;101990.66;5109378;27;46160;-47
2022/05/21 07:44:30;;;;;;;;;4.25;2.50;;;;;32.22;26.73;101983.34;5108694;27;45241;-48
2022/05/21 07:46:55;;;;;;;;;2.50;2.50;;;;;31.10;28.10;101997.69;5105437;27;45331;-51
2022/05/21 07:49:23;;;;;;;;;5.00;2.25;;;;;30.19;28.98;101997.88;5109083;27;45420;-49
2022/05/21 07:51:48;;;;;;;;;4.00;1.20;;;;;29.91;29.61;101993.22;5102726;27;46255;-50
2022/05/21 07:54:13;;;;;;;;;4.25;2.75;;;;;29.91;29.56;101994.03;5108380;27;45527;-47
2022/05/21 07:56:39;;;;;;;;;4.00;2.00;;;;;29.51;30.07;101994.91;5109539;27;45495;-51
2022/05/21 07:59:05;;;;;;;;;1.80;1.80;;;;;29.04;30.53;101988.69;5108293;27;45562;-48
2022/05/21 08:01:30;;;;;;;;;4.25;1.50;;;;;28.88;30.33;101995.69;5109848;27;46149;-49
2022/05/21 08:03:56;;;;;;;;;3.50;2.50;;;;;28.73;30.77;101973.41;5108982;27;45545;-49
2022/05/21 08:06:21;;;;;;;;;1.25;1.25;;;;;29.02;30.18;101988.06;5108428;27;45433;-47
2022/05/21 08:08:48;;;;;;;;;1.00;1.00;;;;;29.50;29.86;101984.19;5110168;27;45381;-49
2022/05/21 08:11:13;;;;;;;;;2.60;0.80;;;;;30.39;27.95;101987.25;5107399;27;45406;-50
2022/05/21 08:13:39;;;;;;;;;0.00;0.00;;;;;30.62;26.98;101991.72;5108597;27;45421;-48
2022/05/21 08:16:05;;;;;;;;;1.20;1.00;;;;;30.77;26.85;101991.19;5109993;27;45831;-47
2022/05/21 08:18:31;;;;;;;;;4.00;2.00;;;;;31.17;26.84;101995.59;5108711;27;45435;-48
2022/05/21 08:20:57;;;;;;;;;2.25;2.00;;;;;31.45;26.97;101981.69;5108578;27;45360;-49
2022/05/21 08:28:50;;;;;;;;;1.00;1.00;;;;;32.92;25.81;101967.66;5092471;27;45411;-50
2022/05/21 08:31:16;;;;;;;;;4.00;3.00;;;;;33.71;23.45;101971.28;5106773;27;47212;-50
2022/05/21 08:33:42;;;;;;;;;0.80;0.80;;;;;33.94;23.28;101951.44;5108404;27;45521;-51
2022/05/21 08:36:07;;;;;;;;;3.00;0.00;;;;;34.23;22.27;101970.28;5109670;27;45416;-47
2022/05/21 08:38:33;;;;;;;;;0.00;0.00;;;;;35.01;21.59;101972.69;5105816;27;45366;-47
2022/05/21 08:41:03;;;;;;;;;1.00;0.00;;;;;35.89;21.23;101979.47;5107980;27;45324;-48
2022/05/21 08:43:31;;;;;;;;;1.00;0.00;;;;;36.63;20.09;101975.56;5109554;27;45443;-49
2022/05/21 08:46:19;;;;;;;;;1.80;0.00;;;;;37.69;20.32;101967.06;5108647;27;45450;-49
2022/05/21 08:49:15;;;;;;;;;0.80;0.80;;;;;37.93;19.11;101975.34;5109167;27;45430;-48
2022/05/21 08:51:56;;;;;;;;;0.00;0.00;;;;;38.00;19.09;101965.78;5043984;28;45457;-50
2022/05/21 08:54:25;;;;;;;;;0.00;0.00;;;;;38.82;19.06;101971.59;5043124;28;45383;-49
2022/05/21 08:56:54;;;;;;;;;0.00;0.00;;;;;39.99;16.71;101970.97;5040779;28;45504;-51
2022/05/21 08:59:24;;;;;;;;;2.20;0.00;;;;;40.86;16.49;101965.91;5040588;28;45516;-49
2022/05/21 09:01:50;;;;;;;;;0.00;0.00;;;;;41.91;15.87;101958.56;5034874;28;46986;-51
2022/05/21 09:04:16;;;;;;;;;2.80;1.00;;;;;42.64;14.56;101950.16;5034656;28;45523;-49
2022/05/21 09:07:08;;;;;;;;;0.25;0.00;;;;;43.21;14.46;101947.72;5034928;28;45580;-50
2022/05/21 09:09:43;;;;;;;;;0.60;0.00;;;;;42.92;14.49;101954.16;5034838;28;45445;-49
2022/05/21 09:12:28;;;;;;;;;1.40;1.40;;;;;43.11;16.58;101948.16;5037135;28;45556;-51
2022/05/21 09:14:58;;;;;;;;;2.60;2.60;;;;;44.43;14.35;101946.63;5035286;28;45484;-49
2022/05/21 09:17:25;;;;;;;;;1.40;1.40;;;;;45.44;13.68;101943.91;5034698;28;45508;-51
2022/05/21 09:19:59;;;;;;;;;1.00;1.00;;;;;46.03;14.18;101939.56;5035053;28;45318;-49
2022/05/21 09:22:25;;;;;;;;;1.20;1.00;;;;;46.42;13.92;101942.59;5036183;28;45398;-49
2022/05/21 09:24:56;;;;;;;;;4.00;1.60;;;;;46.86;13.04;101934.88;5034490;28;45436;-50
2022/05/21 09:27:27;;;;;;;;;1.80;0.80;;;;;46.92;12.61;101926.94;5034688;28;45492;-50
2022/05/21 09:30:11;;;;;;;;;5.40;1.60;;;;;45.93;12.90;101918.41;5101187;27;45408;-51
2022/05/21 09:32:37;;;;;;;;;1.40;1.40;;;;;45.61;12.62;101923.13;5096429;27;46306;-50
2022/05/21 09:35:17;;;;;;;;;3.60;2.00;;;;;46.15;13.12;101936.69;5108680;27;45378;-50
2022/05/21 09:37:44;;;;;;;;;2.80;1.00;;;;;46.80;12.96;101932.69;5105185;27;45442;-50
2022/05/21 09:40:34;;;;;;;;;2.00;2.00;;;;;46.99;14.12;101921.50;5100527;27;45455;-49
2022/05/21 09:45:46;;;;;;;;;1.00;1.00;;;;;47.95;11.83;101920.66;5108179;27;45416;-51
2022/05/21 09:48:11;;;;;;;;;1.00;1.00;;;;;48.04;11.44;101930.94;5107115;27;45522;-51
2022/05/21 09:51:00;;;;;;;;;2.50;1.75;;;;;48.31;12.02;101920.53;5107632;27;45347;-49
2022/05/21 09:53:38;;;;;;;;;2.60;2.60;;;;;48.48;10.87;101920.03;5107232;27;46144;-49
2022/05/21 09:56:06;;;;;;;;;2.20;1.60;;;;;48.56;11.29;101927.41;5108120;27;45393;-50
2022/05/21 09:58:41;;;;;;;;;2.00;2.00;;;;;48.10;10.99;101921.78;5106583;27;45321;-48
2022/05/21 10:01:12;;;;;;;;;1.80;1.80;;;;;47.47;12.38;101913.69;5106328;27;45506;-48
2022/05/21 10:03:43;;;;;;;;;2.20;1.00;;;;;47.23;12.13;101901.50;5106662;27;46347;-50
2022/05/21 10:06:31;;;;;;;;;2.00;1.80;;;;;46.95;13.21;101906.53;5107160;27;45316;-48
2022/05/21 10:11:58;;;;;;;;;1.80;1.80;;;;;48.06;12.56;101901.16;5105104;27;45514;-52
2022/05/21 10:14:31;;;;;;;;;1.00;0.80;;;;;48.59;11.81;101906.91;5107817;27;46250;-51
2022/05/21 10:17:07;;;;;;;;;3.40;1.80;;;;;48.61;11.90;101907.31;5107263;27;45496;-51
2022/05/21 10:19:51;;;;;;;;;4.80;1.80;;;;;48.40;12.35;101902.16;5100615;27;45362;-48
2022/05/21 10:22:25;;;;;;;;;1.80;1.80;;;;;48.43;11.06;101892.13;5102301;27;45396;-47
2022/05/21 10:25:02;;;;;;;;;1.00;1.00;;;;;47.74;11.70;101904.16;5099875;27;47306;-51
2022/05/21 10:27:56;;;;;;;;;0.00;0.00;;;;;47.20;11.94;101896.63;5106756;27;45496;-50
2022/05/21 10:30:41;;;;;;;;;1.80;1.40;;;;;47.55;11.90;101909.81;5103887;27;45518;-49
2022/05/21 10:33:23;;;;;;;;;3.80;2.20;;;;;47.95;11.69;101900.94;5104165;27;45424;-49
2022/05/21 10:36:03;;;;;;;;;1.40;1.40;;;;;48.28;11.58;101898.69;5095746;27;46848;-47
2022/05/21 10:38:42;;;;;;;;;1.00;1.00;;;;;46.96;12.47;101897.69;5100005;27;45301;-49
2022/05/21 10:41:23;;;;;;;;;3.00;3.00;;;;;47.08;12.75;101899.56;5105985;27;45494;-47
2022/05/21 10:44:40;;;;;;;;;3.20;1.40;;;;;47.03;12.50;101893.41;5099467;27;45435;-51
2022/05/21 10:47:27;;;;;;;;;2.20;2.20;;;;;46.23;14.00;101890.69;5044134;28;45299;-51
2022/05/21 10:50:28;;;;;;;;;2.00;1.80;;;;;45.79;13.03;101892.69;5028483;28;45395;-49
2022/05/21 10:53:23;;;;;;;;;4.60;3.40;;;;;44.97;13.35;101884.66;5033998;28;45479;-51
2022/05/21 10:56:08;;;;;;;;;2.00;2.00;;;;;43.81;13.91;101893.16;5034876;28;45421;-48
2022/05/21 10:58:45;;;;;;;;;1.80;1.80;;;;;41.62;15.66;101881.78;5029683;28;45351;-49
2022/05/21 11:01:22;;;;;;;;;1.00;1.00;;;;;39.05;17.70;101877.06;5034893;28;45444;-48
2022/05/21 11:03:56;;;;;;;;;3.40;2.00;;;;;37.24;18.92;101879.69;5031701;28;45557;-48
2022/05/21 11:06:28;;;;;;;;;2.80;2.00;;;;;36.55;19.56;101865.31;5045322;28;45441;-47
2022/05/21 11:08:56;;;;;;;;;2.20;2.00;;;;;36.01;20.20;101865.59;5042562;28;47095;-49
2022/05/21 11:11:39;;;;;;;;;1.40;1.40;;;;;35.35;21.00;101867.69;5042208;28;45351;-49
2022/05/21 11:14:04;;;;;;;;;3.00;1.00;;;;;34.37;22.19;101871.09;5044035;28;45450;-51
2022/05/21 11:16:47;;;;;;;;;2.00;2.00;;;;;33.26;23.12;101871.56;5026058;28;45544;-47
2022/05/21 11:19:20;;;;;;;;;6.20;2.20;;;;;32.27;23.69;101864.97;5043811;28;45692;-49
2022/05/21 11:21:58;;;;;;;;;4.20;2.60;;;;;31.61;25.31;101861.69;5047852;27;45529;-47
2022/05/21 11:24:51;;;;;;;;;2.40;2.40;;;;;31.32;25.72;101855.59;5086838;27;45294;-48
2022/05/21 11:27:46;;;;;;;;;2.80;2.00;;;;;31.18;25.62;101857.91;5090197;27;45328;-48
2022/05/21 11:30:17;;;;;;;;;3.40;3.40;;;;;31.13;26.06;101851.50;5074146;28;45539;-47
2022/05/21 11:38:38;;;;;;;;;1.40;1.40;;;;;30.68;25.82;101849.84;5081871;27;45326;-48
2022/05/21 11:41:24;;;;;;;;;2.80;2.00;;;;;30.52;26.60;101849.63;5086607;27;45580;-48
2022/05/21 11:47:08;;;;;;;;;2.60;1.00;;;;;29.88;27.45;101846.44;5088606;27;45248;-48
2022/05/21 11:49:45;;;;;;;;;2.40;2.00;;;;;29.44;27.52;101840.66;5084941;27;45309;-47
2022/05/21 11:52:26;;;;;;;;;5.80;4.80;;;;;29.02;27.88;101829.19;5085497;27;46053;-49
2022/05/21 11:54:51;;;;;;;;;4.60;3.40;;;;;28.95;28.44;101825.72;5085620;27;45279;-48
2022/05/21 11:57:34;;;;;;;;;1.75;1.75;;;;;29.03;28.10;101826.22;5088736;27;45369;-50
2022/05/21 12:00:21;;;;;;;;;2.20;2.00;;;;;29.01;28.65;101819.31;5079956;27;45306;-49
2022/05/21 12:02:55;;;;;;;;;2.80;2.00;;;;;28.91;29.13;101819.91;5046318;28;46407;-47
2022/05/21 12:05:38;;;;;;;;;3.00;3.00;;;;;28.70;28.97;101815.09;5046007;28;45423;-49